createdAt,value
2022-12-11T00:02:22.002Z,22.67
2022-12-11T00:06:24.164Z,21.40
2022-12-11T00:10:26.168Z,26.90
2022-12-11T00:14:29.156Z,26.77
2022-12-11T00:18:38.498Z,25.33
2022-12-11T00:22:40.406Z,27.53
2022-12-11T00:26:42.266Z,28.77
2022-12-11T00:30:44.104Z,25.83
2022-12-11T00:34:45.897Z,23.30
2022-12-11T00:38:48.894Z,26.47
2022-12-11T00:42:53.799Z,26.53
2022-12-11T00:46:55.699Z,26.33
2022-12-11T00:50:57.675Z,23.43
2022-12-11T00:54:59.498Z,24.20
2022-12-11T00:59:01.490Z,26.57
2022-12-11T01:03:03.553Z,24.97
2022-12-11T01:07:05.531Z,27.00
2022-12-11T01:11:10.580Z,23.03
2022-12-11T01:15:12.622Z,26.23
2022-12-11T01:19:14.915Z,20.37
2022-12-11T01:23:16.815Z,24.60
2022-12-11T01:27:18.606Z,24.33
2022-12-11T01:31:22.225Z,24.03
2022-12-11T01:35:24.192Z,23.40
2022-12-11T01:39:26.093Z,19.53
2022-12-11T01:43:27.958Z,22.90
2022-12-11T01:47:29.864Z,21.93
2022-12-11T01:51:33.459Z,24.37
2022-12-11T01:55:35.366Z,23.90
2022-12-11T01:59:40.042Z,28.30
2022-12-11T02:03:42.620Z,25.27
2022-12-11T02:07:51.109Z,25.57
2022-12-11T02:12:12.034Z,26.60
2022-12-11T02:16:37.913Z,26.77
2022-12-11T02:20:52.043Z,27.37
2022-12-11T02:25:07.722Z,25.53
2022-12-11T02:29:18.719Z,25.90
2022-12-11T02:33:34.322Z,25.07
2022-12-11T02:37:36.506Z,23.73
2022-12-11T02:41:38.882Z,24.07
2022-12-11T02:45:41.256Z,22.97
2022-12-11T02:49:44.595Z,26.60
2022-12-11T02:53:46.497Z,25.93
2022-12-11T02:58:02.467Z,21.77
2022-12-11T03:02:19.515Z,24.30
2022-12-11T03:06:30.428Z,21.47
2022-12-11T03:10:32.229Z,24.57
2022-12-11T03:14:40.413Z,22.73
2022-12-11T03:19:05.434Z,25.43
2022-12-11T03:23:16.589Z,21.60
2022-12-11T03:27:30.330Z,21.53
2022-12-11T03:31:39.035Z,21.37
2022-12-11T03:35:45.826Z,21.30
2022-12-11T03:39:54.859Z,20.50
2022-12-11T03:43:58.518Z,20.63
2022-12-11T03:48:00.568Z,20.97
2022-12-11T03:52:02.733Z,22.43
2022-12-11T03:56:05.723Z,20.30
2022-12-11T04:00:10.808Z,21.20
2022-12-11T04:04:13.082Z,21.20
2022-12-11T04:08:15.610Z,20.73
2022-12-11T04:12:17.435Z,21.10
2022-12-11T04:16:19.312Z,20.60
2022-12-11T04:20:39.943Z,24.03
2022-12-11T04:24:41.837Z,23.37
2022-12-11T04:28:44.367Z,21.77
2022-12-11T04:32:46.256Z,23.20
2022-12-11T04:36:48.170Z,22.40
2022-12-11T04:40:50.008Z,21.13
2022-12-11T04:44:51.808Z,22.13
2022-12-11T04:48:57.252Z,20.57
2022-12-11T04:52:59.663Z,20.13
2022-12-11T04:57:01.552Z,19.17
2022-12-11T05:01:18.006Z,19.47
2022-12-11T05:05:19.830Z,13.57
2022-12-11T05:09:21.709Z,17.30
2022-12-11T05:13:23.519Z,19.63
2022-12-11T05:17:25.432Z,18.07
2022-12-11T05:21:33.235Z,21.27
2022-12-11T05:25:36.714Z,20.53
2022-12-11T05:29:38.536Z,19.60
2022-12-11T05:33:40.407Z,20.10
2022-12-11T05:37:42.164Z,18.77
2022-12-11T05:41:43.931Z,18.03
2022-12-11T05:45:45.754Z,18.53
2022-12-11T05:49:47.923Z,14.60
2022-12-11T05:53:51.095Z,19.60
2022-12-11T05:57:52.965Z,20.77
2022-12-11T06:01:54.887Z,17.00
2022-12-11T06:05:56.785Z,17.77
2022-12-11T06:09:58.533Z,14.77
2022-12-11T06:14:02.159Z,17.87
2022-12-11T06:18:04.133Z,14.87
2022-12-11T06:22:05.940Z,15.50
2022-12-11T06:26:17.397Z,15.40
2022-12-11T06:30:19.393Z,15.13
2022-12-11T06:34:23.534Z,14.30
2022-12-11T06:38:25.411Z,15.03
2022-12-11T06:42:27.226Z,16.30
2022-12-11T06:46:29.393Z,15.23
2022-12-11T06:50:31.251Z,17.50
2022-12-11T06:54:33.221Z,12.27
2022-12-11T06:58:35.716Z,16.27
2022-12-11T07:02:37.660Z,15.30
2022-12-11T07:06:39.902Z,14.33
2022-12-11T07:10:44.337Z,16.80
2022-12-11T07:14:46.264Z,15.20
2022-12-11T07:18:50.010Z,13.43
2022-12-11T07:22:51.900Z,14.30
2022-12-11T07:26:53.848Z,15.93
2022-12-11T07:30:55.753Z,11.10
2022-12-11T07:34:58.068Z,14.77
2022-12-11T07:39:02.760Z,11.53
2022-12-11T07:43:04.760Z,14.97
2022-12-11T07:47:06.895Z,12.97
2022-12-11T07:51:12.562Z,15.33
2022-12-11T07:55:17.724Z,13.67
2022-12-11T07:59:19.811Z,11.47
2022-12-11T08:03:22.088Z,13.30
2022-12-11T08:07:26.825Z,11.93
2022-12-11T08:11:30.319Z,13.07
2022-12-11T08:15:37.159Z,10.07
2022-12-11T08:19:39.680Z,11.33
2022-12-11T08:23:46.750Z,12.83
2022-12-11T08:27:59.339Z,12.40
2022-12-11T08:32:08.970Z,13.77
2022-12-11T08:36:21.572Z,14.13
2022-12-11T08:40:23.778Z,15.00
2022-12-11T08:44:26.952Z,12.83
2022-12-11T08:48:38.922Z,11.07
2022-12-11T08:52:44.324Z,13.53
2022-12-11T08:56:46.722Z,15.67
2022-12-11T09:00:59.823Z,13.67
2022-12-11T09:05:01.867Z,15.27
2022-12-11T09:09:04.004Z,13.63
2022-12-11T09:13:05.873Z,14.67
2022-12-11T09:17:08.864Z,13.33
2022-12-11T09:21:17.089Z,12.57
2022-12-11T09:25:18.965Z,14.80
2022-12-11T09:29:21.059Z,13.47
2022-12-11T09:33:23.849Z,11.40
2022-12-11T09:37:26.432Z,13.10
2022-12-11T09:42:00.671Z,12.33
2022-12-11T09:46:05.733Z,13.57
2022-12-11T09:50:11.466Z,12.30
2022-12-11T09:54:17.314Z,14.17
2022-12-11T09:58:38.596Z,10.97
2022-12-11T10:03:07.794Z,10.40
2022-12-11T10:07:30.600Z,12.83
2022-12-11T10:11:35.195Z,12.27
2022-12-11T10:15:51.257Z,12.90
2022-12-11T10:19:55.458Z,11.10
2022-12-11T10:24:00.614Z,14.77
2022-12-11T10:28:14.314Z,12.10
2022-12-11T10:32:24.770Z,12.43
2022-12-11T10:36:39.374Z,13.57
2022-12-11T10:41:03.331Z,13.33
2022-12-11T10:45:05.939Z,14.30
2022-12-11T10:49:26.844Z,12.40
2022-12-11T10:53:29.451Z,11.90
2022-12-11T10:57:40.311Z,11.93
2022-12-11T11:01:42.290Z,12.33
2022-12-11T11:05:49.204Z,11.13
2022-12-11T11:10:09.848Z,13.40
2022-12-11T11:14:15.562Z,16.87
2022-12-11T11:18:25.466Z,10.90
2022-12-11T11:22:27.759Z,11.57
2022-12-11T11:26:56.543Z,9.20
2022-12-11T11:31:05.938Z,10.60
2022-12-11T11:35:11.676Z,12.03
2022-12-11T11:39:37.633Z,12.37
2022-12-11T11:43:54.697Z,11.20
2022-12-11T11:48:28.672Z,8.37
2022-12-11T11:52:49.101Z,12.43
2022-12-11T11:56:52.057Z,11.40
2022-12-11T12:00:54.867Z,10.77
2022-12-11T12:04:56.840Z,10.37
2022-12-11T12:09:19.310Z,9.40
2022-12-11T12:14:29.152Z,12.63
2022-12-11T12:19:03.811Z,12.17
2022-12-11T12:23:45.218Z,13.40
2022-12-11T12:28:05.938Z,13.60
2022-12-11T12:32:36.928Z,12.97
2022-12-11T12:36:46.797Z,13.23
2022-12-11T12:41:19.521Z,14.53
2022-12-11T12:46:02.582Z,11.83
2022-12-11T12:50:05.068Z,12.13
2022-12-11T12:54:12.321Z,15.83
2022-12-11T12:58:42.335Z,13.67
2022-12-11T13:02:50.638Z,13.23
2022-12-11T13:06:52.475Z,12.70
2022-12-11T13:11:02.375Z,11.53
2022-12-11T13:15:04.818Z,11.53
2022-12-11T13:19:30.026Z,13.63
2022-12-11T13:23:37.289Z,14.23
2022-12-11T13:27:43.705Z,14.73
2022-12-11T13:31:45.831Z,12.37
2022-12-11T13:35:47.972Z,12.40
2022-12-11T13:39:50.165Z,14.60
2022-12-11T13:44:35.916Z,14.77
2022-12-11T13:48:48.455Z,11.83
2022-12-11T13:52:58.508Z,12.93
2022-12-11T13:57:15.236Z,12.13
2022-12-11T14:01:32.545Z,12.17
2022-12-11T14:05:34.594Z,12.97
2022-12-11T14:09:40.342Z,14.57
2022-12-11T14:13:42.271Z,12.47
2022-12-11T14:17:51.473Z,11.87
2022-12-11T14:22:06.880Z,12.27
2022-12-11T14:26:18.158Z,15.43
2022-12-11T14:30:32.541Z,15.10
2022-12-11T14:34:38.541Z,14.03
2022-12-11T14:38:58.164Z,17.63
2022-12-11T14:43:02.224Z,15.23
2022-12-11T14:47:14.088Z,12.27
2022-12-11T14:51:20.365Z,14.17
2022-12-11T14:55:27.717Z,16.27
2022-12-11T14:59:32.097Z,15.60
2022-12-11T15:03:43.263Z,15.67
2022-12-11T15:08:27.028Z,16.23
2022-12-11T15:12:29.009Z,17.10
2022-12-11T15:16:33.557Z,16.50
2022-12-11T15:20:35.549Z,16.33
2022-12-11T15:24:42.743Z,16.57
2022-12-11T15:28:44.631Z,17.57
2022-12-11T15:32:46.974Z,16.33
2022-12-11T15:36:48.811Z,18.00
2022-12-11T15:40:50.793Z,15.43
2022-12-11T15:44:53.806Z,17.07
2022-12-11T15:48:56.783Z,16.53
2022-12-11T15:52:58.657Z,18.40
2022-12-11T15:57:01.855Z,14.80
2022-12-11T16:01:06.443Z,15.67
2022-12-11T16:05:08.909Z,17.03
2022-12-11T16:09:10.971Z,16.67
2022-12-11T16:13:13.194Z,17.70
2022-12-11T16:17:15.326Z,16.90
2022-12-11T16:21:21.393Z,19.07
2022-12-11T16:25:25.059Z,19.43
2022-12-11T16:29:27.070Z,18.03
2022-12-11T16:33:29.000Z,18.60
2022-12-11T16:37:30.874Z,17.67
2022-12-11T16:41:32.739Z,17.63
2022-12-11T16:45:34.683Z,21.00
2022-12-11T16:49:36.608Z,17.63
2022-12-11T16:53:38.755Z,20.10
2022-12-11T16:57:40.812Z,16.07
2022-12-11T17:01:42.705Z,16.13
2022-12-11T17:05:45.088Z,17.90
2022-12-11T17:09:47.079Z,18.23
2022-12-11T17:13:53.988Z,17.03
2022-12-11T17:17:55.767Z,17.93
2022-12-11T17:21:58.962Z,18.23
2022-12-11T17:26:02.532Z,19.37
2022-12-11T17:30:05.275Z,18.30
2022-12-11T17:34:07.162Z,18.03
2022-12-11T17:38:09.101Z,20.13
2022-12-11T17:42:10.933Z,17.80
2022-12-11T17:46:13.179Z,17.53
2022-12-11T17:50:15.362Z,19.57
2022-12-11T17:54:17.458Z,17.27
2022-12-11T17:58:23.389Z,15.53
2022-12-11T18:02:25.780Z,15.87
2022-12-11T18:06:28.002Z,16.23
2022-12-11T18:10:30.088Z,17.30
2022-12-11T18:14:32.419Z,16.37
2022-12-11T18:18:37.813Z,16.67
2022-12-11T18:22:39.694Z,15.87
2022-12-11T18:26:45.815Z,16.73
2022-12-11T18:30:47.954Z,16.83
2022-12-11T18:34:49.909Z,19.57
2022-12-11T18:38:53.460Z,18.20
2022-12-11T18:42:58.049Z,17.63
2022-12-11T18:47:00.016Z,14.30
2022-12-11T18:51:08.618Z,14.93
2022-12-11T18:55:10.875Z,16.80
2022-12-11T18:59:16.385Z,16.37
2022-12-11T19:03:18.380Z,16.70
2022-12-11T19:07:20.297Z,18.17
2022-12-11T19:11:24.673Z,20.77
2022-12-11T19:15:27.621Z,14.97
2022-12-11T19:19:29.594Z,17.57
2022-12-11T19:23:32.803Z,18.60
2022-12-11T19:27:34.730Z,15.90
2022-12-11T19:31:39.402Z,15.87
2022-12-11T19:35:41.481Z,17.23
2022-12-11T19:39:43.469Z,16.20
2022-12-11T19:43:48.153Z,17.57
2022-12-11T19:47:50.109Z,15.70
2022-12-11T19:51:54.850Z,17.80
2022-12-11T19:56:00.918Z,15.17
2022-12-11T20:00:06.036Z,15.00
2022-12-11T20:04:12.886Z,16.73
2022-12-11T20:08:42.951Z,17.87
2022-12-11T20:12:37.698Z,16.90
2022-12-11T20:17:09.242Z,19.63
2022-12-11T20:21:02.832Z,18.97
2022-12-11T20:25:05.277Z,18.87
2022-12-11T20:29:08.378Z,18.40
2022-12-11T20:33:10.494Z,20.13
2022-12-11T20:37:12.675Z,22.37
2022-12-11T20:41:17.012Z,19.93
2022-12-11T20:45:19.261Z,20.20
2022-12-11T20:49:21.568Z,18.40
2022-12-11T20:53:23.463Z,20.73
2022-12-11T20:57:25.454Z,24.77
2022-12-11T21:01:30.028Z,20.03
2022-12-11T21:05:32.288Z,17.83
2022-12-11T21:09:34.416Z,20.33
2022-12-11T21:13:38.871Z,18.57
2022-12-11T21:17:40.844Z,19.60
2022-12-11T21:21:46.949Z,18.13
2022-12-11T21:25:51.859Z,18.23
2022-12-11T21:29:53.738Z,19.37
2022-12-11T21:34:20.672Z,22.23
2022-12-11T21:38:25.647Z,19.50
2022-12-11T21:42:27.919Z,19.00
2022-12-11T21:46:29.884Z,20.00
2022-12-11T21:50:31.982Z,21.50
2022-12-11T21:54:33.799Z,27.77
2022-12-11T21:58:36.640Z,20.83
2022-12-11T22:02:41.147Z,20.47
2022-12-11T22:06:43.743Z,23.10
2022-12-11T22:10:45.671Z,19.13
2022-12-11T22:14:47.832Z,19.40
2022-12-11T22:18:49.690Z,19.60
2022-12-11T22:22:51.492Z,19.57
2022-12-11T22:26:53.401Z,16.03
2022-12-11T22:30:55.304Z,17.70
2022-12-11T22:34:57.833Z,17.50
2022-12-11T22:39:00.368Z,20.63
2022-12-11T22:43:02.249Z,19.10
2022-12-11T22:47:04.092Z,21.00
2022-12-11T22:51:06.682Z,20.43
2022-12-11T22:55:08.992Z,20.43
2022-12-11T22:59:10.993Z,22.53
2022-12-11T23:03:12.955Z,19.33
2022-12-11T23:07:14.944Z,22.47
2022-12-11T23:11:34.818Z,18.77
2022-12-11T23:15:36.811Z,21.00
2022-12-11T23:19:38.585Z,21.13
2022-12-11T23:23:40.679Z,22.33
2022-12-11T23:27:42.503Z,18.63
2022-12-11T23:31:46.467Z,21.80
2022-12-11T23:35:48.258Z,22.30
2022-12-11T23:39:50.335Z,21.80
2022-12-11T23:43:52.291Z,19.93
2022-12-11T23:47:54.115Z,19.90
2022-12-11T23:52:05.238Z,20.00
2022-12-11T23:56:12.451Z,17.03
